createdAt,value
2022-09-10T00:02:50.480Z,77.13
2022-09-10T00:07:56.247Z,77.69
2022-09-10T00:13:00.170Z,75.90
2022-09-10T00:18:04.051Z,74.80
2022-09-10T00:23:09.674Z,73.58
2022-09-10T00:28:14.342Z,73.75
2022-09-10T00:33:20.585Z,73.71
2022-09-10T00:38:27.492Z,74.16
2022-09-10T00:43:48.876Z,73.29
2022-09-10T00:48:54.256Z,73.61
2022-09-10T00:54:00.759Z,73.85
2022-09-10T00:59:09.031Z,73.51
2022-09-10T01:04:13.374Z,74.61
2022-09-10T01:09:19.364Z,75.36
2022-09-10T01:14:35.925Z,75.74
2022-09-10T01:20:20.553Z,75.56
2022-09-10T01:25:41.336Z,74.69
2022-09-10T01:30:52.824Z,74.96
2022-09-10T01:36:01.926Z,74.84
2022-09-10T01:41:08.141Z,74.27
2022-09-10T01:46:34.916Z,73.80
2022-09-10T01:51:53.382Z,74.11
2022-09-10T01:57:09.969Z,74.65
2022-09-10T02:02:23.748Z,76.60
2022-09-10T02:07:29.545Z,75.21
2022-09-10T02:12:33.679Z,75.19
2022-09-10T02:18:01.426Z,74.59
2022-09-10T02:23:07.526Z,75.62
2022-09-10T02:28:12.116Z,75.16
2022-09-10T02:33:18.555Z,73.80
2022-09-10T02:38:22.849Z,74.83
2022-09-10T02:43:27.242Z,75.54
2022-09-10T02:48:35.254Z,77.25
2022-09-10T02:53:40.034Z,76.97
2022-09-10T02:58:45.319Z,78.66
2022-09-10T03:03:54.464Z,77.45
2022-09-10T03:08:58.584Z,77.60
2022-09-10T03:14:03.893Z,77.95
2022-09-10T03:19:10.189Z,77.09
2022-09-10T03:24:15.569Z,77.55
2022-09-10T03:29:23.194Z,78.81
2022-09-10T03:34:28.853Z,79.63
2022-09-10T03:39:32.843Z,78.86
2022-09-10T03:44:37.059Z,78.81
2022-09-10T03:49:42.802Z,78.93
2022-09-10T03:54:47.304Z,78.10
2022-09-10T03:59:52.780Z,76.74
2022-09-10T04:04:58.387Z,78.42
2022-09-10T04:10:02.348Z,78.17
2022-09-10T04:15:08.173Z,78.85
2022-09-10T04:20:13.941Z,78.35
2022-09-10T04:25:18.697Z,77.86
2022-09-10T04:30:23.553Z,77.87
2022-09-10T04:35:30.453Z,77.66
2022-09-10T04:40:35.869Z,76.86
2022-09-10T04:45:41.344Z,77.24
2022-09-10T04:51:14.396Z,77.41
2022-09-10T04:56:16.685Z,77.53
2022-09-10T05:01:20.663Z,76.47
2022-09-10T05:06:29.800Z,74.91
2022-09-10T05:11:33.858Z,76.83
2022-09-10T05:16:38.974Z,76.72
2022-09-10T05:21:44.540Z,75.16
2022-09-10T05:26:50.172Z,76.54
2022-09-10T05:31:54.435Z,75.57
2022-09-10T05:37:01.643Z,75.53
2022-09-10T05:42:07.281Z,74.77
2022-09-10T05:47:12.742Z,76.65
2022-09-10T05:52:18.955Z,75.87
2022-09-10T05:57:23.079Z,74.02
2022-09-10T06:02:28.121Z,73.61
2022-09-10T06:07:35.506Z,73.11
2022-09-10T06:12:40.323Z,72.82
2022-09-10T06:17:44.822Z,73.55
2022-09-10T06:22:52.146Z,74.60
2022-09-10T06:27:56.546Z,74.17
2022-09-10T06:33:00.869Z,72.89
2022-09-10T06:38:06.719Z,74.72
2022-09-10T06:43:11.893Z,74.04
2022-09-10T06:48:50.225Z,75.18
2022-09-10T06:53:58.155Z,74.64
2022-09-10T06:59:02.874Z,74.85
2022-09-10T07:04:14.044Z,72.87
2022-09-10T07:09:21.104Z,70.85
2022-09-10T07:14:39.051Z,68.84
2022-09-10T07:19:45.434Z,68.81
2022-09-10T07:25:01.963Z,70.48
2022-09-10T07:30:24.855Z,69.99
2022-09-10T07:35:31.412Z,68.68
2022-09-10T07:40:38.405Z,67.87
2022-09-10T07:45:43.290Z,63.37
2022-09-10T07:50:48.668Z,60.15
2022-09-10T07:56:02.296Z,62.29
2022-09-10T08:01:13.904Z,61.41
2022-09-10T08:06:20.466Z,60.92
2022-09-10T08:11:35.717Z,58.65
2022-09-10T08:16:44.487Z,57.51
2022-09-10T08:21:49.987Z,55.00
2022-09-10T08:27:03.791Z,51.49
2022-09-10T08:32:09.469Z,50.05
2022-09-10T08:37:14.659Z,46.43
2022-09-10T08:42:24.257Z,43.55
2022-09-10T08:47:35.629Z,40.33
2022-09-10T08:52:50.823Z,40.18
2022-09-10T08:58:07.082Z,39.75
2022-09-10T09:03:19.575Z,38.55
2022-09-10T09:08:27.242Z,37.84
2022-09-10T09:13:56.389Z,38.18
2022-09-10T09:19:15.879Z,37.33
2022-09-10T09:24:25.674Z,37.16
2022-09-10T09:29:41.107Z,37.41
2022-09-10T09:34:50.545Z,37.64
2022-09-10T09:40:06.938Z,38.44
2022-09-10T09:45:23.429Z,37.26
2022-09-10T09:50:30.738Z,37.79
2022-09-10T09:55:40.428Z,37.56
2022-09-10T10:00:45.901Z,37.51
2022-09-10T10:05:49.982Z,41.39
2022-09-10T10:10:54.122Z,42.32
2022-09-10T10:16:17.682Z,43.60
2022-09-10T10:21:23.591Z,41.41
2022-09-10T10:26:32.567Z,40.40
2022-09-10T10:31:41.119Z,41.97
2022-09-10T10:36:55.749Z,43.38
2022-09-10T10:42:08.110Z,45.42
2022-09-10T10:47:44.530Z,47.86
2022-09-10T10:53:11.894Z,45.62
2022-09-10T10:58:35.363Z,44.94
2022-09-10T11:03:44.879Z,43.39
2022-09-10T11:08:53.382Z,42.27
2022-09-10T11:14:03.847Z,44.42
2022-09-10T11:19:18.525Z,43.62
2022-09-10T11:24:32.199Z,42.85
2022-09-10T11:29:43.805Z,40.78
2022-09-10T11:34:59.247Z,39.89
2022-09-10T11:40:12.928Z,39.83
2022-09-10T11:45:25.382Z,39.87
2022-09-10T11:50:43.130Z,39.38
2022-09-10T11:56:30.849Z,39.86
2022-09-10T12:01:57.988Z,39.33
2022-09-10T12:07:20.059Z,39.68
2022-09-10T12:12:40.140Z,40.07
2022-09-10T12:17:51.246Z,41.53
2022-09-10T12:23:07.350Z,43.43
2022-09-10T12:28:54.499Z,44.00
2022-09-10T12:34:18.202Z,44.18
2022-09-10T12:39:25.982Z,43.68
2022-09-10T12:44:57.243Z,42.47
2022-09-10T12:50:04.280Z,44.55
2022-09-10T12:55:22.133Z,45.44
2022-09-10T13:00:28.120Z,46.10
2022-09-10T13:05:45.820Z,48.11
2022-09-10T13:11:15.964Z,57.63
2022-09-10T13:16:25.162Z,64.01
2022-09-10T13:21:58.630Z,66.60
2022-09-10T13:27:20.018Z,70.93
2022-09-10T13:32:30.363Z,73.42
2022-09-10T13:38:09.784Z,71.08
2022-09-10T13:43:31.671Z,75.45
2022-09-10T13:48:46.177Z,76.22
2022-09-10T13:53:51.184Z,74.50
2022-09-10T13:59:02.187Z,68.76
2022-09-10T14:04:26.297Z,68.27
2022-09-10T14:09:34.776Z,68.91
2022-09-10T14:14:44.224Z,68.23
2022-09-10T14:19:54.976Z,71.30
2022-09-10T14:25:01.650Z,73.28
2022-09-10T14:30:25.907Z,73.02
2022-09-10T14:35:41.086Z,74.47
2022-09-10T14:40:49.764Z,78.48
2022-09-10T14:45:55.346Z,78.03
2022-09-10T14:51:22.011Z,78.49
2022-09-10T14:56:28.625Z,78.24
2022-09-10T15:01:38.281Z,83.76
2022-09-10T15:06:44.837Z,84.02
2022-09-10T15:11:56.029Z,79.50
2022-09-10T15:17:01.761Z,76.88
2022-09-10T15:22:07.274Z,76.69
2022-09-10T15:27:13.724Z,77.59
2022-09-10T15:32:19.186Z,77.85
2022-09-10T15:37:23.200Z,81.98
2022-09-10T15:42:28.119Z,84.09
2022-09-10T15:47:34.485Z,82.81
2022-09-10T15:52:38.781Z,83.06
2022-09-10T15:57:42.964Z,84.42
2022-09-10T16:02:52.022Z,82.84
2022-09-10T16:07:56.860Z,82.52
2022-09-10T16:13:00.863Z,80.96
2022-09-10T16:18:06.649Z,82.67
2022-09-10T16:23:10.544Z,83.88
2022-09-10T16:28:14.929Z,85.06
2022-09-10T16:33:20.700Z,85.80
2022-09-10T16:38:25.884Z,87.96
2022-09-10T16:43:32.226Z,84.67
2022-09-10T16:48:39.739Z,86.88
2022-09-10T16:53:45.501Z,89.88
2022-09-10T16:58:49.994Z,89.69
2022-09-10T17:03:56.211Z,91.95
2022-09-10T17:09:01.989Z,91.07
2022-09-10T17:14:09.171Z,89.43
2022-09-10T17:19:16.022Z,91.07
2022-09-10T17:24:22.677Z,93.34
2022-09-10T17:29:27.776Z,91.38
2022-09-10T17:34:34.326Z,92.57
2022-09-10T17:39:39.028Z,96.20
2022-09-10T17:44:44.835Z,96.67
2022-09-10T17:49:50.855Z,93.74
2022-09-10T17:54:54.773Z,90.29
2022-09-10T17:59:58.729Z,88.98
2022-09-10T18:05:05.726Z,90.08
2022-09-10T18:10:10.144Z,89.39
2022-09-10T18:15:14.114Z,88.37
2022-09-10T18:20:20.251Z,88.44
2022-09-10T18:25:27.325Z,87.11
2022-09-10T18:30:31.472Z,88.22
2022-09-10T18:35:38.162Z,87.31
2022-09-10T18:40:42.617Z,89.19
2022-09-10T18:45:46.524Z,88.32
2022-09-10T18:50:51.998Z,87.76
2022-09-10T18:55:56.109Z,87.91
2022-09-10T19:01:06.208Z,88.87
2022-09-10T19:06:13.447Z,91.12
2022-09-10T19:11:19.232Z,89.84
2022-09-10T19:16:25.370Z,89.57
2022-09-10T19:21:33.114Z,88.59
2022-09-10T19:26:37.360Z,88.00
2022-09-10T19:31:42.393Z,89.87
2022-09-10T19:36:48.118Z,91.20
2022-09-10T19:41:52.415Z,89.48
2022-09-10T19:46:56.457Z,89.57
2022-09-10T19:52:01.854Z,89.51
2022-09-10T19:57:05.944Z,89.34
2022-09-10T20:02:10.835Z,89.82
2022-09-10T20:07:16.353Z,89.49
2022-09-10T20:12:20.836Z,88.19
2022-09-10T20:17:24.732Z,91.37
2022-09-10T20:22:35.743Z,91.10
2022-09-10T20:27:42.408Z,90.23
2022-09-10T20:32:46.995Z,91.68
2022-09-10T20:37:52.713Z,93.17
2022-09-10T20:42:56.871Z,93.44
2022-09-10T20:48:02.160Z,91.41
2022-09-10T20:53:07.488Z,89.49
2022-09-10T20:58:11.454Z,89.78
2022-09-10T21:03:15.471Z,89.21
2022-09-10T21:08:20.900Z,89.78
2022-09-10T21:13:26.210Z,91.50
2022-09-10T21:18:30.215Z,91.51
2022-09-10T21:23:36.785Z,90.50
2022-09-10T21:28:41.245Z,88.47
2022-09-10T21:33:45.344Z,88.54
2022-09-10T21:38:51.800Z,88.14
2022-09-10T21:43:56.029Z,90.49
2022-09-10T21:49:00.150Z,88.36
2022-09-10T21:54:05.990Z,88.73
2022-09-10T21:59:12.226Z,86.55
2022-09-10T22:04:22.172Z,85.39
2022-09-10T22:09:28.018Z,86.22
2022-09-10T22:14:32.281Z,86.49
2022-09-10T22:19:37.203Z,87.74
2022-09-10T22:24:42.749Z,90.00
2022-09-10T22:29:46.671Z,89.63
2022-09-10T22:34:50.748Z,90.35
2022-09-10T22:39:57.131Z,89.03
2022-09-10T22:45:03.671Z,89.17
2022-09-10T22:50:08.043Z,89.55
2022-09-10T22:55:14.492Z,90.18
2022-09-10T23:00:18.736Z,90.27
2022-09-10T23:05:22.989Z,89.54
2022-09-10T23:10:28.276Z,88.40
2022-09-10T23:15:33.312Z,88.36
2022-09-10T23:20:38.050Z,88.24
2022-09-10T23:25:43.573Z,88.97
2022-09-10T23:30:47.894Z,88.54
2022-09-10T23:35:52.914Z,87.27
2022-09-10T23:41:00.815Z,87.75
2022-09-10T23:46:04.955Z,88.43
2022-09-10T23:51:08.989Z,88.39
2022-09-10T23:56:14.589Z,90.23
